KFDK/FDK METAR and TAF weather

Enter ICAO airport designator
Station Type Date Time Source
KFDK METAR 2022/12/04 11:47 UTC NOAA

KFDK 041147Z 00000KT 7SM CLR 01/M04 A3028


Station Type Date Time Source
KFDK Decoded METAR 2022/12/04 11:47 UTC NOAA

Frederick, Frederick Municipal Airport, MD, United States (KFDK) 39-25-03N 077-22-28W
Dec 04, 2022 - 06:47 AM EST / 2022.12.04 1147 UTC
Wind: Calm:0
Visibility: 7 mile(s):0
Sky conditions: clear
Temperature: 33 F (1 C)
Dew Point: 24 F (-4 C)
Relative Humidity: 69%
Pressure (altimeter): 30.28 in. Hg (1025 hPa)
ob: KFDK 041147Z 00000KT 7SM CLR 01/M04 A3028
cycle: 12

Station Type Date Time Source
KFDK TAF UTC NOAA

Error!

Example: see airport list